sensor_id;sensor_type;location;lat;lon;timestamp;P1;durP1;ratioP1;P2;durP2;ratioP2
19903;SDS011;10114;50.970;4.962;2023-07-28T00:01:39;6.57;;;2.30;;
19903;SDS011;10114;50.970;4.962;2023-07-28T00:04:05;6.20;;;2.67;;
19903;SDS011;10114;50.970;4.962;2023-07-28T00:06:34;6.95;;;2.63;;
19903;SDS011;10114;50.970;4.962;2023-07-28T00:09:00;8.40;;;2.58;;
19903;SDS011;10114;50.970;4.962;2023-07-28T00:11:26;4.80;;;2.33;;
19903;SDS011;10114;50.970;4.962;2023-07-28T00:13:52;6.32;;;2.75;;
19903;SDS011;10114;50.970;4.962;2023-07-28T00:16:19;4.88;;;2.22;;
19903;SDS011;10114;50.970;4.962;2023-07-28T00:18:45;8.13;;;2.65;;
19903;SDS011;10114;50.970;4.962;2023-07-28T00:21:11;6.20;;;2.13;;
19903;SDS011;10114;50.970;4.962;2023-07-28T00:23:37;6.82;;;2.58;;
19903;SDS011;10114;50.970;4.962;2023-07-28T00:26:03;6.88;;;2.97;;
19903;SDS011;10114;50.970;4.962;2023-07-28T00:28:29;7.97;;;2.80;;
19903;SDS011;10114;50.970;4.962;2023-07-28T00:30:55;6.28;;;2.55;;
19903;SDS011;10114;50.970;4.962;2023-07-28T00:33:21;6.15;;;2.30;;
19903;SDS011;10114;50.970;4.962;2023-07-28T00:35:47;5.57;;;2.50;;
19903;SDS011;10114;50.970;4.962;2023-07-28T00:38:13;5.20;;;2.65;;
19903;SDS011;10114;50.970;4.962;2023-07-28T00:40:39;6.32;;;2.88;;
19903;SDS011;10114;50.970;4.962;2023-07-28T00:43:05;6.25;;;2.67;;
19903;SDS011;10114;50.970;4.962;2023-07-28T00:45:31;6.82;;;2.92;;
19903;SDS011;10114;50.970;4.962;2023-07-28T00:47:58;6.30;;;2.42;;
19903;SDS011;10114;50.970;4.962;2023-07-28T00:50:24;5.30;;;2.70;;
19903;SDS011;10114;50.970;4.962;2023-07-28T00:52:51;6.60;;;2.55;;
19903;SDS011;10114;50.970;4.962;2023-07-28T00:55:17;5.22;;;3.00;;
19903;SDS011;10114;50.970;4.962;2023-07-28T00:57:43;5.32;;;2.90;;
19903;SDS011;10114;50.970;4.962;2023-07-28T01:00:10;5.43;;;2.85;;
19903;SDS011;10114;50.970;4.962;2023-07-28T01:02:36;5.80;;;2.97;;
19903;SDS011;10114;50.970;4.962;2023-07-28T01:05:02;7.20;;;2.42;;
19903;SDS011;10114;50.970;4.962;2023-07-28T01:10:08;7.05;;;3.30;;
19903;SDS011;10114;50.970;4.962;2023-07-28T01:12:36;5.75;;;3.00;;
19903;SDS011;10114;50.970;4.962;2023-07-28T01:15:02;11.73;;;3.40;;
19903;SDS011;10114;50.970;4.962;2023-07-28T01:17:28;7.15;;;3.22;;
19903;SDS011;10114;50.970;4.962;2023-07-28T01:19:54;7.90;;;3.45;;
19903;SDS011;10114;50.970;4.962;2023-07-28T01:27:34;6.78;;;3.42;;
19903;SDS011;10114;50.970;4.962;2023-07-28T01:30:02;9.75;;;3.38;;
19903;SDS011;10114;50.970;4.962;2023-07-28T01:32:28;6.18;;;3.40;;
19903;SDS011;10114;50.970;4.962;2023-07-28T01:34:54;6.68;;;3.72;;
19903;SDS011;10114;50.970;4.962;2023-07-28T01:37:20;8.02;;;3.55;;
19903;SDS011;10114;50.970;4.962;2023-07-28T01:39:46;9.38;;;3.53;;
19903;SDS011;10114;50.970;4.962;2023-07-28T01:42:12;8.18;;;3.85;;
19903;SDS011;10114;50.970;4.962;2023-07-28T01:44:38;6.95;;;3.20;;
19903;SDS011;10114;50.970;4.962;2023-07-28T01:47:04;9.25;;;3.95;;
19903;SDS011;10114;50.970;4.962;2023-07-28T01:49:30;7.93;;;3.83;;
19903;SDS011;10114;50.970;4.962;2023-07-28T01:51:56;8.35;;;3.67;;
19903;SDS011;10114;50.970;4.962;2023-07-28T01:54:22;6.25;;;3.42;;
19903;SDS011;10114;50.970;4.962;2023-07-28T01:56:48;6.65;;;3.80;;
19903;SDS011;10114;50.970;4.962;2023-07-28T01:59:14;6.40;;;3.25;;
19903;SDS011;10114;50.970;4.962;2023-07-28T02:01:40;8.30;;;3.88;;
19903;SDS011;10114;50.970;4.962;2023-07-28T02:04:06;11.43;;;4.25;;
19903;SDS011;10114;50.970;4.962;2023-07-28T02:06:32;7.15;;;3.70;;
19903;SDS011;10114;50.970;4.962;2023-07-28T02:08:58;7.93;;;3.67;;
19903;SDS011;10114;50.970;4.962;2023-07-28T02:11:24;9.25;;;3.90;;
19903;SDS011;10114;50.970;4.962;2023-07-28T02:13:50;6.78;;;3.30;;
19903;SDS011;10114;50.970;4.962;2023-07-28T02:16:16;9.70;;;3.97;;
19903;SDS011;10114;50.970;4.962;2023-07-28T02:18:42;7.28;;;3.45;;
19903;SDS011;10114;50.970;4.962;2023-07-28T02:21:08;7.05;;;3.72;;
19903;SDS011;10114;50.970;4.962;2023-07-28T02:23:34;7.18;;;3.45;;
19903;SDS011;10114;50.970;4.962;2023-07-28T02:26:00;10.50;;;3.80;;
19903;SDS011;10114;50.970;4.962;2023-07-28T02:28:26;9.00;;;3.65;;
19903;SDS011;10114;50.970;4.962;2023-07-28T02:30:52;7.68;;;3.95;;
19903;SDS011;10114;50.970;4.962;2023-07-28T02:33:18;7.75;;;3.97;;
19903;SDS011;10114;50.970;4.962;2023-07-28T02:35:44;8.65;;;4.00;;
19903;SDS011;10114;50.970;4.962;2023-07-28T02:38:10;10.55;;;4.32;;
19903;SDS011;10114;50.970;4.962;2023-07-28T02:40:36;9.43;;;5.00;;
19903;SDS011;10114;50.970;4.962;2023-07-28T02:43:02;8.73;;;4.47;;
19903;SDS011;10114;50.970;4.962;2023-07-28T02:45:28;12.00;;;4.50;;
19903;SDS011;10114;50.970;4.962;2023-07-28T02:47:54;10.45;;;4.50;;
19903;SDS011;10114;50.970;4.962;2023-07-28T02:50:20;13.60;;;5.50;;
19903;SDS011;10114;50.970;4.962;2023-07-28T02:52:46;11.60;;;5.38;;
19903;SDS011;10114;50.970;4.962;2023-07-28T02:55:12;9.85;;;5.05;;
19903;SDS011;10114;50.970;4.962;2023-07-28T02:57:38;11.02;;;4.85;;
19903;SDS011;10114;50.970;4.962;2023-07-28T03:00:04;8.45;;;4.53;;
19903;SDS011;10114;50.970;4.962;2023-07-28T03:02:32;9.05;;;4.95;;
19903;SDS011;10114;50.970;4.962;2023-07-28T03:04:59;10.30;;;4.88;;
19903;SDS011;10114;50.970;4.962;2023-07-28T03:07:25;11.40;;;4.95;;
19903;SDS011;10114;50.970;4.962;2023-07-28T03:09:51;8.25;;;4.28;;
19903;SDS011;10114;50.970;4.962;2023-07-28T03:12:17;11.07;;;5.32;;
19903;SDS011;10114;50.970;4.962;2023-07-28T03:14:43;10.57;;;4.63;;
19903;SDS011;10114;50.970;4.962;2023-07-28T03:17:09;13.52;;;5.13;;
19903;SDS011;10114;50.970;4.962;2023-07-28T03:19:35;14.88;;;4.70;;
19903;SDS011;10114;50.970;4.962;2023-07-28T03:22:01;11.07;;;5.05;;
19903;SDS011;10114;50.970;4.962;2023-07-28T03:24:27;13.68;;;4.95;;
19903;SDS011;10114;50.970;4.962;2023-07-28T03:26:53;11.45;;;5.03;;
19903;SDS011;10114;50.970;4.962;2023-07-28T03:29:19;11.85;;;5.38;;
19903;SDS011;10114;50.970;4.962;2023-07-28T03:31:45;10.65;;;4.85;;
19903;SDS011;10114;50.970;4.962;2023-07-28T03:34:11;11.57;;;4.85;;
19903;SDS011;10114;50.970;4.962;2023-07-28T03:36:37;15.65;;;5.78;;
19903;SDS011;10114;50.970;4.962;2023-07-28T03:39:04;10.98;;;5.15;;
19903;SDS011;10114;50.970;4.962;2023-07-28T03:41:30;12.23;;;5.00;;
19903;SDS011;10114;50.970;4.962;2023-07-28T03:43:56;10.00;;;5.35;;
19903;SDS011;10114;50.970;4.962;2023-07-28T03:46:22;15.30;;;5.93;;
19903;SDS011;10114;50.970;4.962;2023-07-28T03:48:48;16.17;;;6.00;;
19903;SDS011;10114;50.970;4.962;2023-07-28T03:51:14;16.52;;;5.38;;
19903;SDS011;10114;50.970;4.962;2023-07-28T03:53:40;14.48;;;5.65;;
19903;SDS011;10114;50.970;4.962;2023-07-28T03:56:06;11.77;;;5.43;;
19903;SDS011;10114;50.970;4.962;2023-07-28T03:58:32;13.35;;;5.78;;
19903;SDS011;10114;50.970;4.962;2023-07-28T04:00:58;13.77;;;6.05;;
19903;SDS011;10114;50.970;4.962;2023-07-28T04:03:24;11.05;;;5.60;;
19903;SDS011;10114;50.970;4.962;2023-07-28T04:05:50;18.60;;;5.70;;
19903;SDS011;10114;50.970;4.962;2023-07-28T04:08:16;10.90;;;5.07;;
19903;SDS011;10114;50.970;4.962;2023-07-28T04:10:42;13.43;;;5.03;;
19903;SDS011;10114;50.970;4.962;2023-07-28T04:13:08;14.55;;;5.22;;
19903;SDS011;10114;50.970;4.962;2023-07-28T04:15:34;11.02;;;5.20;;
19903;SDS011;10114;50.970;4.962;2023-07-28T04:18:00;10.60;;;4.72;;
19903;SDS011;10114;50.970;4.962;2023-07-28T04:20:26;14.23;;;4.70;;
19903;SDS011;10114;50.970;4.962;2023-07-28T04:22:52;10.98;;;4.63;;
19903;SDS011;10114;50.970;4.962;2023-07-28T04:25:18;9.80;;;4.68;;
19903;SDS011;10114;50.970;4.962;2023-07-28T04:27:44;10.25;;;4.35;;
19903;SDS011;10114;50.970;4.962;2023-07-28T04:30:10;10.13;;;4.50;;
19903;SDS011;10114;50.970;4.962;2023-07-28T04:32:37;9.18;;;5.10;;
19903;SDS011;10114;50.970;4.962;2023-07-28T04:35:03;11.23;;;4.55;;
19903;SDS011;10114;50.970;4.962;2023-07-28T04:37:30;10.45;;;4.45;;
19903;SDS011;10114;50.970;4.962;2023-07-28T04:39:56;12.82;;;4.75;;
19903;SDS011;10114;50.970;4.962;2023-07-28T04:42:22;10.48;;;4.03;;
19903;SDS011;10114;50.970;4.962;2023-07-28T04:44:48;9.20;;;4.22;;
19903;SDS011;10114;50.970;4.962;2023-07-28T04:47:14;9.30;;;3.97;;
19903;SDS011;10114;50.970;4.962;2023-07-28T04:49:40;7.85;;;3.90;;
19903;SDS011;10114;50.970;4.962;2023-07-28T04:52:06;7.15;;;3.53;;
19903;SDS011;10114;50.970;4.962;2023-07-28T04:54:33;9.80;;;3.88;;
19903;SDS011;10114;50.970;4.962;2023-07-28T04:56:59;8.43;;;3.80;;
19903;SDS011;10114;50.970;4.962;2023-07-28T04:59:25;9.80;;;4.10;;
19903;SDS011;10114;50.970;4.962;2023-07-28T05:01:51;8.15;;;3.60;;
19903;SDS011;10114;50.970;4.962;2023-07-28T05:04:17;9.15;;;4.25;;
19903;SDS011;10114;50.970;4.962;2023-07-28T05:06:44;8.30;;;3.50;;
19903;SDS011;10114;50.970;4.962;2023-07-28T05:09:10;8.43;;;3.70;;
19903;SDS011;10114;50.970;4.962;2023-07-28T05:11:36;7.47;;;3.20;;
19903;SDS011;10114;50.970;4.962;2023-07-28T05:14:02;10.40;;;3.95;;
19903;SDS011;10114;50.970;4.962;2023-07-28T05:16:31;10.15;;;3.88;;
19903;SDS011;10114;50.970;4.962;2023-07-28T05:18:57;9.18;;;3.72;;
19903;SDS011;10114;50.970;4.962;2023-07-28T05:21:23;8.48;;;3.58;;
19903;SDS011;10114;50.970;4.962;2023-07-28T05:23:49;7.35;;;3.08;;
19903;SDS011;10114;50.970;4.962;2023-07-28T05:26:15;6.50;;;3.15;;
19903;SDS011;10114;50.970;4.962;2023-07-28T05:28:41;7.88;;;3.10;;
19903;SDS011;10114;50.970;4.962;2023-07-28T05:31:07;8.98;;;3.00;;
19903;SDS011;10114;50.970;4.962;2023-07-28T05:33:33;7.35;;;3.30;;
19903;SDS011;10114;50.970;4.962;2023-07-28T05:36:00;6.05;;;2.90;;
19903;SDS011;10114;50.970;4.962;2023-07-28T05:38:26;7.75;;;3.35;;
19903;SDS011;10114;50.970;4.962;2023-07-28T05:40:56;8.73;;;3.13;;
19903;SDS011;10114;50.970;4.962;2023-07-28T05:43:22;8.10;;;3.38;;
19903;SDS011;10114;50.970;4.962;2023-07-28T05:45:48;6.72;;;3.20;;
19903;SDS011;10114;50.970;4.962;2023-07-28T05:48:14;8.95;;;3.33;;
19903;SDS011;10114;50.970;4.962;2023-07-28T05:50:40;6.70;;;3.05;;
19903;SDS011;10114;50.970;4.962;2023-07-28T05:53:06;7.40;;;3.60;;
19903;SDS011;10114;50.970;4.962;2023-07-28T05:55:32;7.20;;;3.20;;
19903;SDS011;10114;50.970;4.962;2023-07-28T05:57:58;7.97;;;3.45;;
19903;SDS011;10114;50.970;4.962;2023-07-28T06:00:24;8.10;;;3.65;;
19903;SDS011;10114;50.970;4.962;2023-07-28T06:02:51;7.00;;;2.90;;
19903;SDS011;10114;50.970;4.962;2023-07-28T06:05:17;4.85;;;2.97;;
19903;SDS011;10114;50.970;4.962;2023-07-28T06:07:43;6.32;;;3.33;;
19903;SDS011;10114;50.970;4.962;2023-07-28T06:10:09;9.20;;;3.88;;
19903;SDS011;10114;50.970;4.962;2023-07-28T06:12:35;5.55;;;2.90;;
19903;SDS011;10114;50.970;4.962;2023-07-28T06:15:01;6.53;;;2.90;;
19903;SDS011;10114;50.970;4.962;2023-07-28T06:17:28;5.47;;;2.80;;
19903;SDS011;10114;50.970;4.962;2023-07-28T06:19:54;6.05;;;2.33;;
19903;SDS011;10114;50.970;4.962;2023-07-28T06:22:20;4.03;;;2.22;;
19903;SDS011;10114;50.970;4.962;2023-07-28T06:24:46;3.55;;;2.10;;
19903;SDS011;10114;50.970;4.962;2023-07-28T06:27:12;5.50;;;2.40;;
19903;SDS011;10114;50.970;4.962;2023-07-28T06:29:38;5.55;;;1.92;;
19903;SDS011;10114;50.970;4.962;2023-07-28T06:32:05;3.72;;;1.67;;
19903;SDS011;10114;50.970;4.962;2023-07-28T06:34:31;3.17;;;1.40;;
19903;SDS011;10114;50.970;4.962;2023-07-28T06:36:57;3.47;;;1.40;;
19903;SDS011;10114;50.970;4.962;2023-07-28T06:39:23;3.35;;;1.30;;
19903;SDS011;10114;50.970;4.962;2023-07-28T06:41:50;2.80;;;1.20;;
19903;SDS011;10114;50.970;4.962;2023-07-28T06:44:16;3.40;;;0.90;;
19903;SDS011;10114;50.970;4.962;2023-07-28T06:46:42;2.70;;;1.10;;
19903;SDS011;10114;50.970;4.962;2023-07-28T06:49:08;5.70;;;0.93;;
19903;SDS011;10114;50.970;4.962;2023-07-28T06:51:35;2.33;;;0.88;;
19903;SDS011;10114;50.970;4.962;2023-07-28T06:54:01;4.15;;;0.75;;
19903;SDS011;10114;50.970;4.962;2023-07-28T06:56:27;3.80;;;0.70;;
19903;SDS011;10114;50.970;4.962;2023-07-28T06:58:53;1.25;;;0.60;;
19903;SDS011;10114;50.970;4.962;2023-07-28T07:01:19;0.93;;;0.52;;
19903;SDS011;10114;50.970;4.962;2023-07-28T07:03:47;1.40;;;0.60;;
19903;SDS011;10114;50.970;4.962;2023-07-28T07:06:13;1.83;;;0.70;;
19903;SDS011;10114;50.970;4.962;2023-07-28T07:08:39;2.03;;;0.70;;
19903;SDS011;10114;50.970;4.962;2023-07-28T07:11:05;3.20;;;0.90;;
19903;SDS011;10114;50.970;4.962;2023-07-28T07:13:31;2.63;;;0.88;;
19903;SDS011;10114;50.970;4.962;2023-07-28T07:15:57;4.78;;;0.60;;
19903;SDS011;10114;50.970;4.962;2023-07-28T07:18:23;0.75;;;0.40;;
19903;SDS011;10114;50.970;4.962;2023-07-28T07:20:49;2.33;;;0.90;;
19903;SDS011;10114;50.970;4.962;2023-07-28T07:23:15;5.20;;;0.95;;
19903;SDS011;10114;50.970;4.962;2023-07-28T07:25:41;2.80;;;0.90;;
19903;SDS011;10114;50.970;4.962;2023-07-28T07:28:07;1.98;;;0.73;;
19903;SDS011;10114;50.970;4.962;2023-07-28T07:30:33;1.38;;;0.65;;
19903;SDS011;10114;50.970;4.962;2023-07-28T07:32:59;3.13;;;0.90;;
19903;SDS011;10114;50.970;4.962;2023-07-28T07:35:25;3.78;;;1.00;;
19903;SDS011;10114;50.970;4.962;2023-07-28T07:37:51;2.83;;;0.90;;
19903;SDS011;10114;50.970;4.962;2023-07-28T07:40:17;3.03;;;1.10;;
19903;SDS011;10114;50.970;4.962;2023-07-28T07:42:45;2.38;;;0.70;;
19903;SDS011;10114;50.970;4.962;2023-07-28T07:45:12;4.30;;;0.70;;
19903;SDS011;10114;50.970;4.962;2023-07-28T07:47:42;2.92;;;0.82;;
19903;SDS011;10114;50.970;4.962;2023-07-28T07:50:08;1.08;;;0.65;;
19903;SDS011;10114;50.970;4.962;2023-07-28T07:52:35;1.88;;;0.50;;
19903;SDS011;10114;50.970;4.962;2023-07-28T07:55:01;1.85;;;0.60;;
19903;SDS011;10114;50.970;4.962;2023-07-28T07:57:28;1.52;;;0.70;;
19903;SDS011;10114;50.970;4.962;2023-07-28T07:59:54;2.45;;;0.70;;
19903;SDS011;10114;50.970;4.962;2023-07-28T08:02:20;21.58;;;2.17;;
19903;SDS011;10114;50.970;4.962;2023-07-28T08:04:46;1.02;;;0.65;;
19903;SDS011;10114;50.970;4.962;2023-07-28T08:07:12;2.40;;;0.70;;
19903;SDS011;10114;50.970;4.962;2023-07-28T08:09:38;2.53;;;0.60;;
19903;SDS011;10114;50.970;4.962;2023-07-28T08:12:04;2.28;;;0.60;;
19903;SDS011;10114;50.970;4.962;2023-07-28T08:14:30;1.88;;;0.50;;
19903;SDS011;10114;50.970;4.962;2023-07-28T08:16:56;1.98;;;0.50;;
19903;SDS011;10114;50.970;4.962;2023-07-28T08:19:22;1.73;;;0.50;;
19903;SDS011;10114;50.970;4.962;2023-07-28T08:21:48;2.97;;;0.40;;
19903;SDS011;10114;50.970;4.962;2023-07-28T08:24:14;4.10;;;0.40;;
19903;SDS011;10114;50.970;4.962;2023-07-28T08:26:41;1.02;;;0.50;;
19903;SDS011;10114;50.970;4.962;2023-07-28T08:29:07;0.70;;;0.30;;
19903;SDS011;10114;50.970;4.962;2023-07-28T08:31:33;1.73;;;0.40;;
19903;SDS011;10114;50.970;4.962;2023-07-28T08:33:59;1.23;;;0.50;;
19903;SDS011;10114;50.970;4.962;2023-07-28T08:36:25;2.45;;;0.28;;
19903;SDS011;10114;50.970;4.962;2023-07-28T08:38:51;0.50;;;0.30;;
19903;SDS011;10114;50.970;4.962;2023-07-28T08:41:17;0.77;;;0.30;;
19903;SDS011;10114;50.970;4.962;2023-07-28T08:43:43;4.75;;;0.50;;
19903;SDS011;10114;50.970;4.962;2023-07-28T08:46:09;1.42;;;0.52;;
19903;SDS011;10114;50.970;4.962;2023-07-28T08:48:35;6.90;;;0.95;;
19903;SDS011;10114;50.970;4.962;2023-07-28T08:51:01;1.70;;;0.47;;
19903;SDS011;10114;50.970;4.962;2023-07-28T08:53:29;4.60;;;0.77;;
19903;SDS011;10114;50.970;4.962;2023-07-28T08:55:55;0.50;;;0.30;;
19903;SDS011;10114;50.970;4.962;2023-07-28T08:58:22;2.53;;;0.50;;
19903;SDS011;10114;50.970;4.962;2023-07-28T09:00:51;20.15;;;3.00;;
19903;SDS011;10114;50.970;4.962;2023-07-28T09:03:18;2.38;;;0.63;;
19903;SDS011;10114;50.970;4.962;2023-07-28T09:05:44;3.55;;;0.70;;
19903;SDS011;10114;50.970;4.962;2023-07-28T09:08:14;1.95;;;0.80;;
19903;SDS011;10114;50.970;4.962;2023-07-28T09:10:44;1.98;;;0.70;;
19903;SDS011;10114;50.970;4.962;2023-07-28T09:13:12;1.85;;;0.77;;
19903;SDS011;10114;50.970;4.962;2023-07-28T09:15:38;2.63;;;0.68;;
19903;SDS011;10114;50.970;4.962;2023-07-28T09:18:08;1.63;;;0.63;;
19903;SDS011;10114;50.970;4.962;2023-07-28T09:20:35;2.22;;;0.77;;
19903;SDS011;10114;50.970;4.962;2023-07-28T09:23:02;2.42;;;0.50;;
19903;SDS011;10114;50.970;4.962;2023-07-28T09:25:28;3.92;;;1.02;;
19903;SDS011;10114;50.970;4.962;2023-07-28T09:27:55;2.92;;;0.95;;
19903;SDS011;10114;50.970;4.962;2023-07-28T09:30:22;1.60;;;0.93;;
19903;SDS011;10114;50.970;4.962;2023-07-28T09:32:50;1.40;;;0.70;;
19903;SDS011;10114;50.970;4.962;2023-07-28T09:35:16;2.03;;;0.70;;
19903;SDS011;10114;50.970;4.962;2023-07-28T09:37:46;2.65;;;0.70;;
19903;SDS011;10114;50.970;4.962;2023-07-28T09:40:14;2.28;;;0.90;;
19903;SDS011;10114;50.970;4.962;2023-07-28T09:42:41;2.08;;;0.70;;
19903;SDS011;10114;50.970;4.962;2023-07-28T09:45:07;2.60;;;0.60;;
19903;SDS011;10114;50.970;4.962;2023-07-28T09:47:34;2.15;;;0.65;;
19903;SDS011;10114;50.970;4.962;2023-07-28T09:50:02;2.20;;;0.80;;
19903;SDS011;10114;50.970;4.962;2023-07-28T09:52:31;2.35;;;0.70;;
19903;SDS011;10114;50.970;4.962;2023-07-28T09:54:59;3.55;;;0.70;;
19903;SDS011;10114;50.970;4.962;2023-07-28T09:57:26;2.45;;;0.70;;
19903;SDS011;10114;50.970;4.962;2023-07-28T09:59:53;2.38;;;0.70;;
19903;SDS011;10114;50.970;4.962;2023-07-28T10:02:20;1.90;;;0.73;;
19903;SDS011;10114;50.970;4.962;2023-07-28T10:04:46;1.73;;;0.68;;
19903;SDS011;10114;50.970;4.962;2023-07-28T10:07:12;1.30;;;0.50;;
19903;SDS011;10114;50.970;4.962;2023-07-28T10:09:39;2.28;;;0.80;;
19903;SDS011;10114;50.970;4.962;2023-07-28T10:12:05;4.72;;;0.80;;
19903;SDS011;10114;50.970;4.962;2023-07-28T10:14:34;1.98;;;0.88;;
19903;SDS011;10114;50.970;4.962;2023-07-28T10:17:02;2.22;;;0.80;;
19903;SDS011;10114;50.970;4.962;2023-07-28T10:19:35;2.90;;;0.77;;
19903;SDS011;10114;50.970;4.962;2023-07-28T10:22:11;1.80;;;0.80;;
19903;SDS011;10114;50.970;4.962;2023-07-28T10:25:10;3.50;;;0.88;;
19903;SDS011;10114;50.970;4.962;2023-07-28T10:29:57;2.38;;;0.70;;
19903;SDS011;10114;50.970;4.962;2023-07-28T10:32:27;1.88;;;0.60;;
19903;SDS011;10114;50.970;4.962;2023-07-28T10:34:59;1.77;;;0.75;;
19903;SDS011;10114;50.970;4.962;2023-07-28T10:37:26;2.13;;;0.80;;
19903;SDS011;10114;50.970;4.962;2023-07-28T10:42:37;4.43;;;1.60;;
19903;SDS011;10114;50.970;4.962;2023-07-28T10:45:03;2.65;;;1.33;;
19903;SDS011;10114;50.970;4.962;2023-07-28T10:47:29;2.40;;;1.10;;
19903;SDS011;10114;50.970;4.962;2023-07-28T10:49:55;2.78;;;1.20;;
19903;SDS011;10114;50.970;4.962;2023-07-28T10:52:23;2.08;;;0.90;;
19903;SDS011;10114;50.970;4.962;2023-07-28T10:54:49;1.73;;;0.90;;
19903;SDS011;10114;50.970;4.962;2023-07-28T10:57:15;2.05;;;0.90;;
19903;SDS011;10114;50.970;4.962;2023-07-28T10:59:41;2.60;;;1.05;;
19903;SDS011;10114;50.970;4.962;2023-07-28T11:02:07;1.48;;;0.57;;
19903;SDS011;10114;50.970;4.962;2023-07-28T11:04:45;1.40;;;0.63;;
19903;SDS011;10114;50.970;4.962;2023-07-28T11:07:12;2.17;;;0.95;;
19903;SDS011;10114;50.970;4.962;2023-07-28T11:09:38;0.77;;;0.47;;
19903;SDS011;10114;50.970;4.962;2023-07-28T11:12:07;1.52;;;0.60;;
19903;SDS011;10114;50.970;4.962;2023-07-28T11:14:35;1.13;;;0.60;;
19903;SDS011;10114;50.970;4.962;2023-07-28T11:17:01;1.65;;;0.73;;
19903;SDS011;10114;50.970;4.962;2023-07-28T11:19:27;1.75;;;1.05;;
19903;SDS011;10114;50.970;4.962;2023-07-28T11:21:54;2.28;;;0.88;;
19903;SDS011;10114;50.970;4.962;2023-07-28T11:24:20;1.88;;;0.70;;
19903;SDS011;10114;50.970;4.962;2023-07-28T11:26:49;1.63;;;0.63;;
19903;SDS011;10114;50.970;4.962;2023-07-28T11:29:15;1.60;;;0.70;;
19903;SDS011;10114;50.970;4.962;2023-07-28T11:31:41;1.80;;;0.63;;
19903;SDS011;10114;50.970;4.962;2023-07-28T11:34:14;1.55;;;0.60;;
19903;SDS011;10114;50.970;4.962;2023-07-28T11:36:40;2.25;;;0.85;;
19903;SDS011;10114;50.970;4.962;2023-07-28T11:39:07;1.88;;;0.68;;
19903;SDS011;10114;50.970;4.962;2023-07-28T11:41:33;1.58;;;0.70;;
19903;SDS011;10114;50.970;4.962;2023-07-28T11:43:59;1.42;;;0.52;;
19903;SDS011;10114;50.970;4.962;2023-07-28T11:49:11;2.13;;;0.73;;
19903;SDS011;10114;50.970;4.962;2023-07-28T11:51:41;1.33;;;0.70;;
19903;SDS011;10114;50.970;4.962;2023-07-28T11:54:08;2.40;;;0.88;;
19903;SDS011;10114;50.970;4.962;2023-07-28T11:56:36;2.45;;;1.00;;
19903;SDS011;10114;50.970;4.962;2023-07-28T11:59:02;3.60;;;1.23;;
19903;SDS011;10114;50.970;4.962;2023-07-28T12:01:28;2.60;;;1.05;;
19903;SDS011;10114;50.970;4.962;2023-07-28T12:03:54;3.60;;;1.00;;
19903;SDS011;10114;50.970;4.962;2023-07-28T12:06:20;2.70;;;1.13;;
19903;SDS011;10114;50.970;4.962;2023-07-28T12:08:46;2.53;;;1.17;;
19903;SDS011;10114;50.970;4.962;2023-07-28T12:11:13;3.72;;;1.23;;
19903;SDS011;10114;50.970;4.962;2023-07-28T12:13:51;3.35;;;1.25;;
19903;SDS011;10114;50.970;4.962;2023-07-28T12:19:02;5.25;;;1.60;;
19903;SDS011;10114;50.970;4.962;2023-07-28T12:21:29;2.72;;;1.42;;
19903;SDS011;10114;50.970;4.962;2023-07-28T12:23:56;3.65;;;1.60;;
19903;SDS011;10114;50.970;4.962;2023-07-28T12:26:22;4.32;;;1.70;;
19903;SDS011;10114;50.970;4.962;2023-07-28T12:28:48;6.82;;;2.53;;
19903;SDS011;10114;50.970;4.962;2023-07-28T12:31:15;4.90;;;2.35;;
19903;SDS011;10114;50.970;4.962;2023-07-28T12:33:41;4.82;;;2.10;;
19903;SDS011;10114;50.970;4.962;2023-07-28T12:36:07;4.25;;;2.10;;
19903;SDS011;10114;50.970;4.962;2023-07-28T12:38:33;4.90;;;2.50;;
19903;SDS011;10114;50.970;4.962;2023-07-28T12:40:59;4.10;;;1.58;;
19903;SDS011;10114;50.970;4.962;2023-07-28T12:43:25;3.90;;;1.52;;
19903;SDS011;10114;50.970;4.962;2023-07-28T12:45:51;3.17;;;1.70;;
19903;SDS011;10114;50.970;4.962;2023-07-28T12:48:18;6.15;;;2.10;;
19903;SDS011;10114;50.970;4.962;2023-07-28T12:50:44;4.93;;;1.33;;
19903;SDS011;10114;50.970;4.962;2023-07-28T12:53:11;4.43;;;1.50;;
19903;SDS011;10114;50.970;4.962;2023-07-28T12:55:37;3.92;;;1.80;;
19903;SDS011;10114;50.970;4.962;2023-07-28T12:58:03;2.97;;;1.40;;
19903;SDS011;10114;50.970;4.962;2023-07-28T13:00:29;4.50;;;1.80;;
19903;SDS011;10114;50.970;4.962;2023-07-28T13:02:55;4.40;;;1.60;;
19903;SDS011;10114;50.970;4.962;2023-07-28T13:05:21;3.28;;;1.77;;
19903;SDS011;10114;50.970;4.962;2023-07-28T13:07:47;2.50;;;1.35;;
19903;SDS011;10114;50.970;4.962;2023-07-28T13:10:13;3.95;;;1.40;;
19903;SDS011;10114;50.970;4.962;2023-07-28T13:12:39;4.85;;;1.60;;
19903;SDS011;10114;50.970;4.962;2023-07-28T13:15:05;4.00;;;1.90;;
19903;SDS011;10114;50.970;4.962;2023-07-28T13:17:31;4.13;;;2.00;;
19903;SDS011;10114;50.970;4.962;2023-07-28T13:19:57;4.32;;;1.75;;
19903;SDS011;10114;50.970;4.962;2023-07-28T13:22:24;3.65;;;1.90;;
19903;SDS011;10114;50.970;4.962;2023-07-28T13:24:52;3.90;;;1.90;;
19903;SDS011;10114;50.970;4.962;2023-07-28T13:27:18;4.40;;;1.90;;
19903;SDS011;10114;50.970;4.962;2023-07-28T13:29:45;4.10;;;2.00;;
19903;SDS011;10114;50.970;4.962;2023-07-28T13:32:22;3.80;;;1.88;;
19903;SDS011;10114;50.970;4.962;2023-07-28T13:34:49;3.63;;;1.50;;
19903;SDS011;10114;50.970;4.962;2023-07-28T13:37:15;4.88;;;1.67;;
19903;SDS011;10114;50.970;4.962;2023-07-28T13:39:41;7.53;;;1.90;;
19903;SDS011;10114;50.970;4.962;2023-07-28T13:42:08;5.03;;;1.92;;
19903;SDS011;10114;50.970;4.962;2023-07-28T13:44:34;5.85;;;1.67;;
19903;SDS011;10114;50.970;4.962;2023-07-28T13:47:00;3.00;;;1.45;;
19903;SDS011;10114;50.970;4.962;2023-07-28T13:49:26;3.30;;;1.50;;
19903;SDS011;10114;50.970;4.962;2023-07-28T13:51:52;3.08;;;1.23;;
19903;SDS011;10114;50.970;4.962;2023-07-28T13:54:18;4.50;;;1.10;;
19903;SDS011;10114;50.970;4.962;2023-07-28T13:56:44;2.58;;;1.20;;
19903;SDS011;10114;50.970;4.962;2023-07-28T13:59:10;3.53;;;1.30;;
19903;SDS011;10114;50.970;4.962;2023-07-28T14:01:36;3.03;;;1.30;;
19903;SDS011;10114;50.970;4.962;2023-07-28T14:04:02;2.47;;;1.10;;
19903;SDS011;10114;50.970;4.962;2023-07-28T14:06:28;3.25;;;1.50;;
19903;SDS011;10114;50.970;4.962;2023-07-28T14:08:54;2.53;;;1.23;;
19903;SDS011;10114;50.970;4.962;2023-07-28T14:11:21;3.50;;;1.20;;
19903;SDS011;10114;50.970;4.962;2023-07-28T14:13:47;2.58;;;1.20;;
19903;SDS011;10114;50.970;4.962;2023-07-28T14:16:13;5.00;;;1.60;;
19903;SDS011;10114;50.970;4.962;2023-07-28T14:18:39;4.88;;;1.30;;
19903;SDS011;10114;50.970;4.962;2023-07-28T14:21:05;2.97;;;1.35;;
19903;SDS011;10114;50.970;4.962;2023-07-28T14:23:31;2.30;;;1.02;;
19903;SDS011;10114;50.970;4.962;2023-07-28T14:25:57;3.65;;;1.27;;
19903;SDS011;10114;50.970;4.962;2023-07-28T14:28:23;3.10;;;1.40;;
19903;SDS011;10114;50.970;4.962;2023-07-28T14:30:50;3.08;;;1.35;;
19903;SDS011;10114;50.970;4.962;2023-07-28T14:33:17;3.17;;;1.40;;
19903;SDS011;10114;50.970;4.962;2023-07-28T14:35:43;3.83;;;1.17;;
19903;SDS011;10114;50.970;4.962;2023-07-28T14:38:10;6.32;;;1.42;;
19903;SDS011;10114;50.970;4.962;2023-07-28T14:40:37;3.17;;;1.30;;
19903;SDS011;10114;50.970;4.962;2023-07-28T14:43:05;2.97;;;1.20;;
19903;SDS011;10114;50.970;4.962;2023-07-28T14:45:31;3.03;;;1.20;;
19903;SDS011;10114;50.970;4.962;2023-07-28T14:47:57;3.50;;;1.48;;
19903;SDS011;10114;50.970;4.962;2023-07-28T14:50:23;2.70;;;1.15;;
19903;SDS011;10114;50.970;4.962;2023-07-28T14:52:49;2.42;;;1.13;;
19903;SDS011;10114;50.970;4.962;2023-07-28T14:55:15;2.92;;;1.13;;
19903;SDS011;10114;50.970;4.962;2023-07-28T14:57:41;2.72;;;1.10;;
19903;SDS011;10114;50.970;4.962;2023-07-28T15:00:07;2.97;;;1.17;;